Time;durP1;ratioP1;P1;durP2;ratioP2;P2;SDS_P1;SDS_P2;PMS_P1;PMS_P2;Temp;Humidity;BMP_temperature;BMP_pressure;BME280_temperature;BME280_humidity;BME280_pressure;Samples;Min_cycle;Max_cycle;Signal;HPM_P1;HPM_P2
2022/08/01 00:00:11;;;;;;;13.20;7.30;;;19.80;97.80;;;;;;5030746;28;20025;-71
2022/08/01 00:02:38;;;;;;;11.13;7.35;;;19.70;97.80;;;;;;5030096;28;20060;-70
2022/08/01 00:05:07;;;;;;;11.80;6.88;;;19.70;97.90;;;;;;5031251;28;20088;-72
2022/08/01 00:07:33;;;;;;;13.23;6.93;;;19.70;97.90;;;;;;5016547;28;20021;-72
2022/08/01 00:09:59;;;;;;;10.10;6.63;;;19.70;97.90;;;;;;5033525;28;20120;-73
2022/08/01 00:12:25;;;;;;;11.43;6.97;;;19.70;98.00;;;;;;5034700;28;20102;-69
2022/08/01 00:14:50;;;;;;;11.73;6.55;;;19.70;98.00;;;;;;5033660;28;20056;-72
2022/08/01 00:17:16;;;;;;;16.30;7.00;;;19.70;98.00;;;;;;5033615;28;20042;-69
2022/08/01 00:19:41;;;;;;;11.82;6.35;;;19.70;98.00;;;;;;5033730;28;20087;-61
2022/08/01 00:22:07;;;;;;;11.55;6.25;;;19.70;98.00;;;;;;5033571;28;20037;-62
2022/08/01 00:24:33;;;;;;;9.82;6.30;;;19.70;98.00;;;;;;5015384;28;20018;-61
2022/08/01 00:26:58;;;;;;;13.80;5.82;;;19.60;98.00;;;;;;5033512;28;20033;-60
2022/08/01 00:29:24;;;;;;;11.20;5.18;;;19.70;98.00;;;;;;5015675;28;20041;-61
2022/08/01 00:31:50;;;;;;;9.50;5.22;;;19.60;97.90;;;;;;5032759;28;20021;-61
2022/08/01 00:34:15;;;;;;;9.88;5.00;;;19.70;97.90;;;;;;5033465;28;20073;-60
2022/08/01 00:36:41;;;;;;;10.40;5.78;;;19.70;97.80;;;;;;5033362;28;20048;-60
2022/08/01 00:39:06;;;;;;;9.38;5.07;;;19.60;97.80;;;;;;5033090;28;20537;-66
2022/08/01 00:41:32;;;;;;;8.30;4.80;;;19.60;97.80;;;;;;5032145;28;20056;-70
2022/08/01 00:43:58;;;;;;;7.55;4.72;;;19.60;97.80;;;;;;5032587;28;20462;-68
2022/08/01 00:46:23;;;;;;;8.32;4.93;;;19.60;97.80;;;;;;5032663;28;20028;-67
2022/08/01 00:48:49;;;;;;;8.77;4.50;;;19.50;97.80;;;;;;5032904;28;20048;-69
2022/08/01 00:51:15;;;;;;;6.78;4.35;;;19.50;97.90;;;;;;5032412;28;20048;-69
2022/08/01 00:53:41;;;;;;;8.00;4.70;;;19.50;97.90;;;;;;5013122;28;20497;-65
2022/08/01 00:56:07;;;;;;;7.75;4.20;;;19.50;97.90;;;;;;5031352;28;20111;-71
2022/08/01 00:58:33;;;;;;;8.77;4.78;;;19.40;97.90;;;;;;5014303;28;20021;-68
2022/08/01 01:01:00;;;;;;;9.38;5.15;;;19.40;98.00;;;;;;5032811;28;20059;-72
2022/08/01 01:03:26;;;;;;;7.57;4.53;;;19.40;98.10;;;;;;5033022;28;20120;-73
2022/08/01 01:06:12;;;;;;;9.80;5.38;;;19.40;98.20;;;;;;5032198;28;20025;-72
2022/08/01 01:08:45;;;;;;;12.23;6.47;;;19.40;98.30;;;;;;5033133;28;20079;-70
2022/08/01 01:11:21;;;;;;;9.07;5.28;;;19.30;98.40;;;;;;5032880;28;20026;-71
2022/08/01 01:13:52;;;;;;;10.57;5.95;;;19.30;98.60;;;;;;5032119;28;20018;-65
2022/08/01 01:16:19;;;;;;;;;;;19.20;98.60;;;;;;5032911;28;20203;-72
2022/08/01 01:18:57;;;;;;;10.52;5.53;;;19.20;98.90;;;;;;5014599;28;20453;-63
2022/08/01 01:21:41;;;;;;;9.73;5.65;;;19.20;98.70;;;;;;5031840;28;20103;-71
2022/08/01 01:24:31;;;;;;;10.10;5.72;;;19.20;98.70;;;;;;5032557;28;20044;-64
2022/08/01 01:27:17;;;;;;;13.75;6.53;;;19.20;98.80;;;;;;5031566;28;20030;-69
2022/08/01 01:29:48;;;;;;;9.93;5.45;;;19.20;98.80;;;;;;5032515;28;20440;-66
2022/08/01 01:32:18;;;;;;;10.93;5.50;;;19.10;98.80;;;;;;5032504;28;20104;-72
2022/08/01 01:34:46;;;;;;;10.10;5.80;;;19.10;98.90;;;;;;5014249;28;20506;-68
2022/08/01 01:37:19;;;;;;;10.93;6.00;;;19.10;98.80;;;;;;5032707;28;20292;-70
2022/08/01 01:39:47;;;;;;;10.32;5.28;;;19.10;98.90;;;;;;5032346;28;20018;-70
2022/08/01 01:42:16;;;;;;;9.80;5.35;;;19.10;98.90;;;;;;5013839;28;20036;-65
2022/08/01 01:44:44;;;;;;;12.05;6.18;;;19.10;98.90;;;;;;5014681;28;20035;-71
2022/08/01 01:47:13;;;;;;;9.88;5.72;;;19.00;99.00;;;;;;5014279;28;20112;-72
2022/08/01 01:49:40;;;;;;;12.20;6.97;;;19.00;99.10;;;;;;5031583;28;20040;-71
2022/08/01 01:52:07;;;;;;;10.80;6.05;;;19.00;99.10;;;;;;5031516;28;20032;-72
2022/08/01 01:54:40;;;;;;;12.85;6.68;;;19.00;99.10;;;;;;5016340;28;20033;-71
2022/08/01 01:57:07;;;;;;;16.80;8.40;;;19.00;99.10;;;;;;5011984;28;20530;-69
2022/08/01 01:59:38;;;;;;;12.70;7.55;;;19.00;99.20;;;;;;5023392;28;20377;-71
2022/08/01 02:02:05;;;;;;;14.73;8.52;;;19.00;99.20;;;;;;5031123;28;20017;-71
2022/08/01 02:04:35;;;;;;;16.02;8.77;;;19.00;99.30;;;;;;5032191;28;20067;-71
2022/08/01 02:07:02;;;;;;;17.65;9.15;;;19.00;99.40;;;;;;5031654;28;20026;-72
2022/08/01 02:09:30;;;;;;;16.20;9.75;;;19.00;99.40;;;;;;5014577;28;20022;-72
2022/08/01 02:11:58;;;;;;;15.50;8.90;;;19.00;99.40;;;;;;5006286;28;20108;-71
2022/08/01 02:14:26;;;;;;;18.58;9.32;;;19.00;99.40;;;;;;5031924;28;20025;-71
2022/08/01 02:16:54;;;;;;;17.55;9.45;;;18.90;99.40;;;;;;5030976;28;20383;-69
2022/08/01 02:19:20;;;;;;;15.73;8.70;;;18.90;99.50;;;;;;5013889;28;20029;-68
2022/08/01 02:21:48;;;;;;;17.25;9.75;;;18.90;99.50;;;;;;5013912;28;20390;-61
2022/08/01 02:24:39;;;;;;;17.38;9.30;;;18.90;99.80;;;;;;5031116;28;20160;-63
2022/08/01 02:27:11;;;;;;;13.60;8.43;;;18.80;99.90;;;;;;5013554;28;20432;-64
2022/08/01 02:29:42;;;;;;;15.35;8.10;;;18.80;99.90;;;;;;5030578;28;20101;-72
2022/08/01 02:32:11;;;;;;;;;;;18.70;99.90;;;;;;5031114;28;20053;-66
2022/08/01 02:34:37;;;;;;;13.98;7.43;;;18.70;99.90;;;;;;5031436;28;19921;-65
2022/08/01 02:37:04;;;;;;;10.95;6.28;;;18.60;99.90;;;;;;5030720;28;20063;-71
2022/08/01 02:39:31;;;;;;;16.10;8.07;;;18.60;99.90;;;;;;5031465;28;20300;-67
2022/08/01 02:42:00;;;;;;;13.68;7.22;;;18.60;99.90;;;;;;5031157;28;20104;-60
2022/08/01 02:44:30;;;;;;;12.52;6.97;;;18.60;99.90;;;;;;5030688;28;20025;-61
2022/08/01 02:47:04;;;;;;;10.30;6.18;;;18.60;99.90;;;;;;5013349;28;20029;-61
2022/08/01 02:49:35;;;;;;;11.80;7.13;;;18.60;99.90;;;;;;5031317;28;20017;-60
2022/08/01 02:52:07;;;;;;;16.08;7.97;;;18.70;99.90;;;;;;5030063;28;20029;-60
2022/08/01 02:54:33;;;;;;;13.68;7.60;;;18.70;99.90;;;;;;5031326;28;20026;-71
2022/08/01 02:57:01;;;;;;;12.25;7.03;;;18.60;99.90;;;;;;5013091;28;20044;-71
2022/08/01 02:59:29;;;;;;;10.77;5.90;;;18.60;99.90;;;;;;5030724;28;20489;-72
2022/08/01 03:01:56;;;;;;;11.00;5.85;;;18.60;99.90;;;;;;5013075;28;20022;-71
2022/08/01 03:04:27;;;;;;;9.32;5.63;;;18.60;99.90;;;;;;5030798;28;20028;-65
2022/08/01 03:06:58;;;;;;;9.43;5.30;;;18.60;99.90;;;;;;5011986;28;20430;-66
2022/08/01 03:09:25;;;;;;;7.97;4.72;;;18.60;99.90;;;;;;5031110;28;20501;-63
2022/08/01 03:11:52;;;;;;;9.15;5.03;;;18.60;99.90;;;;;;5030449;28;20033;-68
2022/08/01 03:14:20;;;;;;;9.30;5.60;;;18.60;99.90;;;;;;5030369;28;20060;-71
2022/08/01 03:16:46;;;;;;;8.20;4.88;;;18.60;99.90;;;;;;5013208;28;20033;-62
2022/08/01 03:19:15;;;;;;;8.50;4.60;;;18.60;99.90;;;;;;5030216;28;20072;-65
2022/08/01 03:21:43;;;;;;;8.43;4.50;;;18.60;99.90;;;;;;5031070;28;20096;-62
2022/08/01 03:24:11;;;;;;;7.85;4.20;;;18.60;99.90;;;;;;5032129;28;20064;-72
2022/08/01 03:26:38;;;;;;;7.53;4.50;;;18.50;99.90;;;;;;5030071;28;20048;-64
2022/08/01 03:29:06;;;;;;;8.85;4.80;;;18.50;99.90;;;;;;5030424;28;20105;-66
2022/08/01 03:31:35;;;;;;;7.50;3.90;;;18.50;99.90;;;;;;5030369;28;20482;-70
2022/08/01 03:34:00;;;;;;;7.93;4.60;;;18.40;99.90;;;;;;5029615;28;20092;-67
2022/08/01 03:36:28;;;;;;;8.10;4.35;;;18.40;99.90;;;;;;5030653;28;20030;-67
2022/08/01 03:38:57;;;;;;;7.40;4.25;;;18.40;99.90;;;;;;5030557;28;20029;-71
2022/08/01 03:41:27;;;;;;;7.65;4.13;;;18.40;99.90;;;;;;5032960;28;20071;-71
2022/08/01 03:44:00;;;;;;;7.20;4.40;;;18.30;99.90;;;;;;5034557;28;20029;-64
2022/08/01 03:46:32;;;;;;;7.40;4.45;;;18.40;99.90;;;;;;5033452;28;20094;-67
2022/08/01 03:49:03;;;;;;;6.63;3.50;;;18.30;99.90;;;;;;5034022;28;20022;-70
2022/08/01 03:51:30;;;;;;;6.90;3.58;;;18.30;99.90;;;;;;5033309;28;20017;-66
2022/08/01 03:53:59;;;;;;;5.57;3.58;;;18.30;99.90;;;;;;5034236;28;20483;-71
2022/08/01 03:56:26;;;;;;;6.53;3.70;;;18.40;99.90;;;;;;5033927;28;20030;-70
2022/08/01 03:58:52;;;;;;;7.43;3.75;;;18.40;99.90;;;;;;5034230;28;20022;-69
2022/08/01 04:01:18;;;;;;;7.15;3.80;;;18.50;99.90;;;;;;5032452;28;20386;-67
2022/08/01 04:03:45;;;;;;;7.53;4.03;;;18.50;99.90;;;;;;5032938;28;20414;-70
2022/08/01 04:06:10;;;;;;;7.20;3.78;;;18.60;99.90;;;;;;5032906;28;20025;-65
2022/08/01 04:08:41;;;;;;;8.50;4.40;;;18.50;99.90;;;;;;5032170;28;20071;-68
2022/08/01 04:11:08;;;;;;;6.20;3.90;;;18.60;99.90;;;;;;5033955;28;20541;-69
2022/08/01 04:13:34;;;;;;;9.93;4.47;;;18.60;99.90;;;;;;5034043;28;20101;-65
2022/08/01 04:16:00;;;;;;;6.93;3.88;;;18.60;99.90;;;;;;5033303;28;20034;-70
2022/08/01 04:18:25;;;;;;;6.47;3.85;;;18.60;99.90;;;;;;5034138;28;20457;-71
2022/08/01 04:20:51;;;;;;;6.78;3.80;;;18.70;99.90;;;;;;5033879;28;20022;-72
2022/08/01 04:23:24;;;;;;;6.80;4.45;;;18.70;99.90;;;;;;5031812;28;20022;-72
2022/08/01 04:25:50;;;;;;;7.68;4.18;;;18.70;99.90;;;;;;5032314;28;20073;-71
2022/08/01 04:28:17;;;;;;;6.95;3.88;;;18.80;99.90;;;;;;5033989;28;20030;-71
2022/08/01 04:30:46;;;;;;;7.03;3.83;;;18.80;99.90;;;;;;5033325;28;20351;-71
2022/08/01 04:33:16;;;;;;;6.03;3.60;;;18.80;99.90;;;;;;5033371;28;20024;-73
2022/08/01 04:35:45;;;;;;;7.28;3.90;;;18.80;99.90;;;;;;5033801;28;20087;-73
2022/08/01 04:38:12;;;;;;;8.00;4.55;;;18.80;99.90;;;;;;5033221;28;20087;-72
2022/08/01 04:40:39;;;;;;;8.23;3.80;;;18.80;99.90;;;;;;5033849;28;20475;-72
2022/08/01 04:43:05;;;;;;;7.40;4.10;;;18.70;99.90;;;;;;5033237;28;20576;-62
2022/08/01 04:45:31;;;;;;;5.70;3.47;;;18.70;99.90;;;;;;5032973;28;20029;-68
2022/08/01 04:47:57;;;;;;;7.72;3.83;;;18.60;99.90;;;;;;5031779;28;20057;-71
2022/08/01 04:50:24;;;;;;;5.63;3.40;;;18.60;99.90;;;;;;5033620;28;20437;-70
2022/08/01 04:52:51;;;;;;;6.18;3.42;;;18.60;99.90;;;;;;5031514;28;20033;-72
2022/08/01 04:55:17;;;;;;;7.40;3.63;;;18.60;99.90;;;;;;5032257;28;20396;-71
2022/08/01 04:57:46;;;;;;;5.55;3.15;;;18.60;99.90;;;;;;5024212;28;20517;-69
2022/08/01 05:00:12;;;;;;;6.05;3.40;;;18.70;99.90;;;;;;5031498;28;20466;-69
2022/08/01 05:02:38;;;;;;;7.00;3.78;;;18.70;99.90;;;;;;5013498;28;20097;-69
2022/08/01 05:05:05;;;;;;;9.23;3.75;;;18.70;99.90;;;;;;5012311;28;20105;-54
2022/08/01 05:07:32;;;;;;;6.53;3.42;;;18.70;99.90;;;;;;5013308;28;20115;-59
2022/08/01 05:09:57;;;;;;;6.82;3.90;;;18.70;99.90;;;;;;5019320;28;20517;-65
2022/08/01 05:12:23;;;;;;;6.82;3.80;;;18.70;99.90;;;;;;5025329;28;20041;-57
2022/08/01 05:14:48;;;;;;;6.00;3.55;;;18.80;99.90;;;;;;5032456;28;20096;-60
2022/08/01 05:17:14;;;;;;;8.05;3.97;;;18.80;99.90;;;;;;5029168;28;20516;-63
2022/08/01 05:19:40;;;;;;;7.03;3.90;;;19.00;99.90;;;;;;5021782;28;20397;-67
2022/08/01 05:22:08;;;;;;;6.18;3.80;;;19.00;99.90;;;;;;5029140;28;20446;-57
2022/08/01 05:24:35;;;;;;;6.78;3.55;;;19.10;99.80;;;;;;5011056;28;20090;-68
2022/08/01 05:27:01;;;;;;;6.82;3.70;;;19.10;99.80;;;;;;5010081;28;20067;-59
2022/08/01 05:29:26;;;;;;;7.32;4.05;;;19.10;99.80;;;;;;5017369;28;20429;-66
2022/08/01 05:31:53;;;;;;;7.60;3.80;;;19.10;99.70;;;;;;5012341;28;20030;-66
2022/08/01 05:34:19;;;;;;;7.20;3.55;;;19.10;99.70;;;;;;5027440;28;20370;-62
2022/08/01 05:36:45;;;;;;;6.25;3.50;;;19.10;99.70;;;;;;5013683;28;20041;-63
2022/08/01 05:39:11;;;;;;;5.93;3.80;;;19.10;99.70;;;;;;5035245;28;20025;-62
2022/08/01 05:41:37;;;;;;;10.02;3.40;;;19.00;99.70;;;;;;5015247;28;20120;-65
2022/08/01 05:44:04;;;;;;;5.38;3.30;;;19.00;99.90;;;;;;5023737;28;20056;-59
2022/08/01 05:46:33;;;;;;;3.75;2.15;;;19.00;99.90;;;;;;5031025;28;20026;-60
2022/08/01 05:49:00;;;;;;;2.63;1.20;;;18.90;99.90;;;;;;5029460;28;20112;-61
2022/08/01 05:51:26;;;;;;;0.95;0.85;;;18.80;99.90;;;;;;5029594;28;20072;-58
2022/08/01 05:53:52;;;;;;;1.02;0.65;;;18.70;99.90;;;;;;5011466;28;20018;-64
2022/08/01 05:56:18;;;;;;;1.67;1.10;;;18.70;99.90;;;;;;5038657;28;20041;-61
2022/08/01 05:58:44;;;;;;;1.58;1.13;;;18.70;99.90;;;;;;5048886;28;20025;-65
2022/08/01 06:01:10;;;;;;;1.67;1.00;;;18.70;99.90;;;;;;5028197;28;20074;-68
2022/08/01 06:03:35;;;;;;;1.65;0.93;;;18.80;99.90;;;;;;5019598;28;20026;-63
2022/08/01 06:06:02;;;;;;;1.42;1.00;;;18.80;99.90;;;;;;5011894;28;20057;-64
2022/08/01 06:08:27;;;;;;;1.65;1.15;;;18.80;99.90;;;;;;5011601;28;20401;-62
2022/08/01 06:10:53;;;;;;;2.63;1.50;;;18.80;99.90;;;;;;4994434;28;20450;-64
2022/08/01 06:13:19;;;;;;;2.45;1.38;;;18.90;99.80;;;;;;5012021;28;20465;-63
2022/08/01 06:15:45;;;;;;;2.30;1.35;;;18.90;99.80;;;;;;5011300;28;20479;-64
2022/08/01 06:18:11;;;;;;;1.42;0.98;;;19.00;99.70;;;;;;5011837;28;20072;-65
2022/08/01 06:20:36;;;;;;;1.90;1.30;;;19.10;99.60;;;;;;5011583;28;20100;-64
2022/08/01 06:23:02;;;;;;;2.20;1.27;;;19.10;99.60;;;;;;5010978;28;20028;-66
2022/08/01 06:25:28;;;;;;;1.63;1.30;;;19.10;99.60;;;;;;5012036;28;20018;-68
2022/08/01 06:27:54;;;;;;;2.15;1.60;;;19.20;99.60;;;;;;4993816;28;20478;-66
2022/08/01 06:30:19;;;;;;;2.38;1.30;;;19.20;99.50;;;;;;5011065;28;20088;-67
2022/08/01 06:32:45;;;;;;;3.00;1.92;;;19.10;99.40;;;;;;5012019;28;20030;-63
2022/08/01 06:35:11;;;;;;;1.92;1.35;;;19.00;99.30;;;;;;5011338;28;20045;-69
2022/08/01 06:37:36;;;;;;;2.58;1.70;;;19.00;99.50;;;;;;5026135;28;20460;-71
2022/08/01 06:40:04;;;;;;;2.60;1.77;;;18.90;99.30;;;;;;5011541;28;20048;-71
2022/08/01 06:42:34;;;;;;;2.40;1.60;;;18.90;99.50;;;;;;5011778;28;20026;-72
2022/08/01 06:45:03;;;;;;;4.03;1.90;;;19.00;99.60;;;;;;5010964;28;20018;-70
2022/08/01 06:47:29;;;;;;;3.72;1.90;;;19.10;99.40;;;;;;5011579;28;20014;-69
2022/08/01 06:49:55;;;;;;;3.38;1.90;;;19.20;99.30;;;;;;5011456;28;20022;-65
2022/08/01 06:52:20;;;;;;;3.63;2.13;;;19.30;99.20;;;;;;5026021;28;20021;-69
2022/08/01 06:54:46;;;;;;;3.25;2.10;;;19.30;99.10;;;;;;5011417;28;20022;-69
2022/08/01 06:57:11;;;;;;;4.00;2.17;;;19.50;98.90;;;;;;5025757;28;20440;-65
2022/08/01 06:59:37;;;;;;;3.70;2.10;;;19.60;98.60;;;;;;5011165;28;20030;-61
2022/08/01 07:02:03;;;;;;;4.28;1.80;;;19.70;98.40;;;;;;5010820;28;20034;-61
2022/08/01 07:04:28;;;;;;;5.78;1.90;;;19.70;98.10;;;;;;5010602;28;20490;-61
2022/08/01 07:06:54;;;;;;;4.28;2.10;;;19.70;97.90;;;;;;5011325;28;20022;-62
2022/08/01 07:09:19;;;;;;;2.83;1.67;;;19.80;97.90;;;;;;5011175;28;20034;-60
2022/08/01 07:11:45;;;;;;;5.55;2.00;;;19.90;97.60;;;;;;5010882;28;20030;-68
2022/08/01 07:14:10;;;;;;;2.50;1.60;;;19.90;97.40;;;;;;5011193;28;20030;-62
2022/08/01 07:16:36;;;;;;;3.25;1.88;;;19.90;97.00;;;;;;5014411;28;20041;-69
2022/08/01 07:19:02;;;;;;;3.95;1.70;;;19.90;96.90;;;;;;5014394;28;20018;-69
2022/08/01 07:21:27;;;;;;;3.17;1.75;;;19.90;96.90;;;;;;4997440;28;20029;-60
2022/08/01 07:23:53;;;;;;;3.42;1.73;;;20.10;96.70;;;;;;5016759;28;20045;-61
2022/08/01 07:26:18;;;;;;;2.55;1.70;;;20.20;96.60;;;;;;5017043;28;20417;-64
2022/08/01 07:28:44;;;;;;;2.65;1.70;;;20.20;96.20;;;;;;4997419;28;20018;-64
2022/08/01 07:31:10;;;;;;;2.40;1.80;;;20.10;96.10;;;;;;5014765;28;20026;-65
2022/08/01 07:33:35;;;;;;;6.85;2.13;;;20.00;96.40;;;;;;5013948;28;20045;-60
2022/08/01 07:36:01;;;;;;;2.28;1.45;;;19.90;96.20;;;;;;5014698;28;20155;-62
2022/08/01 07:38:26;;;;;;;2.63;1.70;;;19.80;96.50;;;;;;4997285;28;20010;-61
2022/08/01 07:40:52;;;;;;;4.15;2.10;;;19.80;96.50;;;;;;5014089;28;20034;-62
2022/08/01 07:43:17;;;;;;;1.92;1.25;;;19.70;96.40;;;;;;5014664;28;20036;-69
2022/08/01 07:45:43;;;;;;;3.42;1.80;;;19.70;96.60;;;;;;5014719;28;20030;-64
2022/08/01 07:48:09;;;;;;;2.30;1.60;;;19.70;96.50;;;;;;5013969;28;20470;-60
2022/08/01 07:50:34;;;;;;;3.67;1.35;;;19.70;96.50;;;;;;5014756;28;20102;-63
2022/08/01 07:53:00;;;;;;;4.28;1.80;;;19.90;95.90;;;;;;5014405;28;20026;-61
2022/08/01 07:55:26;;;;;;;3.15;1.60;;;20.00;95.20;;;;;;5013976;28;20018;-64
2022/08/01 07:57:52;;;;;;;3.40;1.98;;;20.00;95.10;;;;;;5014503;28;20117;-63
2022/08/01 08:00:18;;;;;;;4.32;1.65;;;20.20;95.00;;;;;;5014530;28;20030;-64
2022/08/01 08:02:44;;;;;;;3.92;1.70;;;20.30;94.70;;;;;;5014216;28;20033;-67
2022/08/01 08:05:10;;;;;;;3.03;1.65;;;20.40;94.50;;;;;;5014169;28;20022;-68
2022/08/01 08:07:36;;;;;;;6.82;1.80;;;20.60;94.40;;;;;;5013873;28;20056;-69
2022/08/01 08:10:02;;;;;;;3.10;1.73;;;20.80;94.30;;;;;;5013898;28;20378;-65
2022/08/01 08:12:28;;;;;;;3.55;1.73;;;21.00;93.70;;;;;;5014110;28;20028;-65
2022/08/01 08:14:53;;;;;;;3.92;1.90;;;21.10;93.40;;;;;;5013380;28;20026;-69
2022/08/01 08:17:19;;;;;;;3.35;1.90;;;21.20;93.20;;;;;;5013941;28;20033;-68
2022/08/01 08:19:44;;;;;;;2.80;1.73;;;21.30;93.00;;;;;;5014149;28;20462;-68
2022/08/01 08:22:10;;;;;;;3.25;1.90;;;21.40;92.60;;;;;;5013420;28;20033;-69
2022/08/01 08:24:37;;;;;;;2.55;1.65;;;21.50;92.50;;;;;;5014146;28;20111;-64
2022/08/01 08:27:03;;;;;;;4.47;2.05;;;21.60;92.20;;;;;;5013475;28;20123;-69
2022/08/01 08:29:31;;;;;;;3.92;1.98;;;21.70;92.30;;;;;;5013374;28;20505;-64
2022/08/01 08:31:58;;;;;;;4.32;1.70;;;21.60;92.20;;;;;;4995980;28;20022;-66
2022/08/01 08:34:25;;;;;;;2.47;1.50;;;21.50;92.10;;;;;;5013661;28;20057;-65
2022/08/01 08:36:51;;;;;;;3.95;1.90;;;21.30;92.20;;;;;;5013043;28;20026;-68
2022/08/01 08:39:17;;;;;;;3.10;1.65;;;21.30;92.10;;;;;;5013675;28;20022;-65
2022/08/01 08:41:43;;;;;;;3.05;1.70;;;21.20;92.00;;;;;;5014163;28;20080;-67
2022/08/01 08:44:09;;;;;;;2.80;1.60;;;21.10;91.90;;;;;;5012986;28;20018;-64
2022/08/01 08:46:42;;;;;;;3.92;1.50;;;21.00;92.00;;;;;;5013775;28;20022;-67
2022/08/01 08:49:08;;;;;;;5.72;2.00;;;20.90;91.80;;;;;;5013662;28;20514;-65
2022/08/01 08:51:36;;;;;;;2.63;1.58;;;20.80;91.80;;;;;;5013126;28;20057;-67
2022/08/01 08:54:04;;;;;;;3.97;1.80;;;20.70;91.80;;;;;;5013710;28;20022;-67
2022/08/01 08:56:33;;;;;;;5.35;1.98;;;20.70;92.10;;;;;;5013463;28;20030;-66
2022/08/01 08:59:00;;;;;;;1.95;1.50;;;20.60;92.10;;;;;;5013205;28;20014;-68
2022/08/01 09:01:26;;;;;;;3.40;1.75;;;20.60;92.10;;;;;;5013218;28;20018;-64
2022/08/01 09:03:52;;;;;;;3.45;1.90;;;20.70;92.10;;;;;;5012544;28;20312;-63
2022/08/01 09:06:18;;;;;;;4.95;1.80;;;20.80;92.00;;;;;;5013249;28;20068;-59
2022/08/01 09:08:43;;;;;;;4.10;1.80;;;20.90;91.80;;;;;;5013213;28;20052;-61
2022/08/01 09:11:09;;;;;;;3.95;1.70;;;21.00;91.30;;;;;;5012075;28;20084;-59
2022/08/01 09:13:35;;;;;;;3.30;1.70;;;21.10;91.30;;;;;;5013099;28;20018;-60
2022/08/01 09:16:00;;;;;;;3.88;1.42;;;21.20;91.00;;;;;;5012685;28;20394;-60
2022/08/01 09:18:33;;;;;;;3.47;1.83;;;21.30;91.00;;;;;;5012426;28;20068;-59
2022/08/01 09:21:10;;;;;;;3.47;1.77;;;21.20;91.20;;;;;;5012716;28;20026;-61
2022/08/01 09:23:45;;;;;;;5.65;1.60;;;21.20;91.50;;;;;;5012541;28;20589;-60
2022/08/01 09:26:30;;;;;;;5.03;2.08;;;21.10;91.30;;;;;;4994638;28;20442;-59
2022/08/01 09:28:56;;;;;;;5.07;2.08;;;21.00;91.20;;;;;;5012492;28;20026;-59
2022/08/01 09:31:22;;;;;;;3.30;1.60;;;20.90;91.10;;;;;;5012878;28;20531;-61
2022/08/01 09:34:03;;;;;;;3.08;2.10;;;20.90;91.60;;;;;;5011433;28;20058;-59
2022/08/01 09:36:55;;;;;;;4.45;2.40;;;21.10;91.60;;;;;;5012706;28;20179;-59
2022/08/01 09:39:26;;;;;;;5.45;2.28;;;21.30;91.40;;;;;;5011433;28;20017;-60
2022/08/01 09:41:53;;;;;;;3.92;1.80;;;21.50;91.20;;;;;;4994705;28;20021;-71
2022/08/01 09:44:20;;;;;;;2.60;1.88;;;21.70;91.00;;;;;;4995189;28;20049;-69
2022/08/01 09:46:49;;;;;;;5.53;2.22;;;21.80;90.50;;;;;;5011822;28;20018;-62
2022/08/01 09:49:30;;;;;;;7.68;1.88;;;22.00;90.10;;;;;;5012699;28;20504;-62
2022/08/01 09:51:56;;;;;;;;;;;21.90;87.70;;;;;;5012554;28;20037;-65
2022/08/01 09:54:30;;;;;;;4.13;1.63;;;21.80;87.80;;;;;;4994205;28;19905;-62
2022/08/01 09:57:15;;;;;;;8.27;2.05;;;21.70;88.30;;;;;;4994078;28;20131;-62
2022/08/01 09:59:47;;;;;;;3.03;1.33;;;21.60;88.60;;;;;;5012202;28;20021;-63
2022/08/01 10:02:25;;;;;;;3.58;1.60;;;21.40;88.10;;;;;;5011529;28;20038;-65
2022/08/01 10:04:52;;;;;;;5.00;2.00;;;21.40;88.40;;;;;;5012124;28;20068;-61
2022/08/01 10:07:18;;;;;;;6.22;1.90;;;21.40;88.50;;;;;;5011433;28;20026;-62
2022/08/01 10:09:45;;;;;;;3.78;1.58;;;21.40;88.60;;;;;;5012157;28;20109;-65
2022/08/01 10:12:14;;;;;;;5.00;1.92;;;21.40;89.10;;;;;;5012225;28;20040;-64
2022/08/01 10:14:41;;;;;;;5.55;2.33;;;21.50;89.70;;;;;;5011678;28;20056;-63
2022/08/01 10:17:09;;;;;;;3.85;1.95;;;21.50;89.40;;;;;;5011575;28;20040;-62
2022/08/01 10:19:37;;;;;;;3.97;1.60;;;21.60;88.80;;;;;;5011935;28;20076;-64
2022/08/01 10:22:07;;;;;;;3.30;1.52;;;21.60;88.00;;;;;;5011020;28;20608;-63
2022/08/01 10:24:37;;;;;;;4.35;1.70;;;21.70;87.60;;;;;;5011711;28;20030;-62
2022/08/01 10:27:06;;;;;;;4.30;1.85;;;22.00;87.50;;;;;;5011943;28;20326;-63
2022/08/01 10:29:42;;;;;;;3.13;1.60;;;22.20;86.00;;;;;;5011003;28;20054;-66
2022/08/01 10:32:09;;;;;;;5.28;1.90;;;22.30;84.60;;;;;;5011490;28;20022;-66
2022/08/01 10:34:36;;;;;;;4.72;1.60;;;22.20;84.20;;;;;;5011913;28;20042;-65
2022/08/01 10:37:03;;;;;;;3.05;1.88;;;22.20;85.50;;;;;;5010789;28;20029;-64
2022/08/01 10:39:31;;;;;;;4.32;1.70;;;22.20;84.40;;;;;;5011744;28;20022;-65
2022/08/01 10:41:57;;;;;;;4.97;1.88;;;22.30;83.60;;;;;;5011394;28;20030;-69
2022/08/01 10:44:25;;;;;;;3.72;1.60;;;22.40;83.70;;;;;;5011070;28;20022;-72
2022/08/01 10:46:55;;;;;;;3.10;1.77;;;22.50;82.10;;;;;;5011298;28;20030;-66
2022/08/01 10:49:24;;;;;;;4.00;1.85;;;22.70;82.50;;;;;;5010383;28;20076;-66
2022/08/01 10:51:50;;;;;;;3.17;1.58;;;22.90;81.30;;;;;;5011078;28;20394;-71
2022/08/01 10:54:16;;;;;;;2.42;1.38;;;23.20;80.30;;;;;;5026822;28;20052;-68
2022/08/01 10:56:47;;;;;;;2.78;1.20;;;23.30;79.80;;;;;;5025976;28;20038;-62
2022/08/01 10:59:30;;;;;;;;;;;23.40;79.10;;;;;;5011816;28;20045;-63
2022/08/01 11:02:04;;;;;;;6.00;1.60;;;23.50;77.70;;;;;;5010890;28;19928;-63
2022/08/01 11:04:33;;;;;;;4.43;1.65;;;23.60;77.50;;;;;;5010459;28;20052;-60
2022/08/01 11:07:05;;;;;;;3.30;1.35;;;23.60;75.70;;;;;;5010903;28;20101;-60
2022/08/01 11:09:38;;;;;;;2.83;1.27;;;23.40;74.20;;;;;;5011237;28;20433;-60
2022/08/01 11:12:09;;;;;;;5.03;1.58;;;23.40;75.10;;;;;;5010364;28;20109;-60
2022/08/01 11:14:57;;;;;;;4.95;1.48;;;23.50;74.70;;;;;;5011351;28;20125;-62
2022/08/01 11:17:50;;;;;;;3.75;1.77;;;23.60;73.40;;;;;;5010433;28;20518;-60
2022/08/01 11:20:17;;;;;;;3.42;1.52;;;23.80;73.10;;;;;;5011175;28;20018;-62
2022/08/01 11:23:01;;;;;;;3.17;1.15;;;24.00;71.20;;;;;;5011212;28;20030;-62
2022/08/01 11:25:48;;;;;;;3.35;1.10;;;24.10;70.60;;;;;;5025534;28;20029;-60
2022/08/01 11:28:13;;;;;;;2.92;1.25;;;24.30;69.50;;;;;;5011032;28;20478;-61
2022/08/01 11:30:40;;;;;;;4.72;1.25;;;24.40;65.50;;;;;;5011142;28;20040;-61
2022/08/01 11:33:07;;;;;;;1.98;1.02;;;24.40;66.50;;;;;;5010190;28;20026;-61
2022/08/01 11:35:34;;;;;;;4.55;1.55;;;24.50;65.90;;;;;;5010750;28;20054;-60
2022/08/01 11:38:22;;;;;;;3.17;1.35;;;24.50;67.10;;;;;;5010698;28;20022;-61
2022/08/01 11:41:14;;;;;;;3.10;1.75;;;24.60;68.50;;;;;;5010704;28;20025;-62
2022/08/01 11:44:05;;;;;;;2.95;1.20;;;24.70;65.70;;;;;;5011067;28;20466;-60
2022/08/01 11:46:56;;;;;;;5.35;1.60;;;24.70;65.00;;;;;;5010202;28;20144;-60
2022/08/01 11:49:27;;;;;;;2.95;1.20;;;24.80;64.40;;;;;;5011135;28;20481;-60
2022/08/01 11:51:57;;;;;;;2.58;1.17;;;25.10;63.90;;;;;;5010292;28;20025;-60
2022/08/01 11:54:28;;;;;;;3.75;1.27;;;25.20;61.90;;;;;;5010425;28;20359;-60
2022/08/01 11:56:59;;;;;;;3.42;1.42;;;25.20;61.60;;;;;;4993126;28;20069;-71
2022/08/01 11:59:26;;;;;;;4.93;1.38;;;25.30;62.00;;;;;;5011263;28;20026;-73
2022/08/01 12:01:52;;;;;;;5.90;1.20;;;25.30;59.80;;;;;;5011948;28;20474;-73
2022/08/01 12:04:18;;;;;;;2.55;1.20;;;25.10;61.00;;;;;;5014674;28;20026;-72
2022/08/01 12:06:44;;;;;;;3.08;1.00;;;25.00;60.30;;;;;;5013837;28;20049;-69
2022/08/01 12:09:18;;;;;;;6.28;1.05;;;24.70;60.40;;;;;;5014249;28;20076;-73
2022/08/01 12:11:44;;;;;;;5.43;1.40;;;24.60;60.40;;;;;;5014537;28;20462;-67
2022/08/01 12:14:16;;;;;;;5.53;1.80;;;24.60;60.90;;;;;;5013072;28;20445;-69
2022/08/01 12:16:49;;;;;;;3.83;1.13;;;24.70;60.70;;;;;;5014501;28;20482;-70
2022/08/01 12:19:22;;;;;;;1.88;0.98;;;24.60;59.70;;;;;;5013973;28;20052;-67
2022/08/01 12:22:07;;;;;;;2.35;1.35;;;24.70;60.70;;;;;;5013065;28;20030;-66
2022/08/01 12:24:34;;;;;;;4.07;1.27;;;24.90;60.10;;;;;;4996461;28;20022;-65
2022/08/01 12:27:01;;;;;;;2.47;1.17;;;24.90;60.00;;;;;;5013914;28;20021;-67
2022/08/01 12:29:34;;;;;;;4.05;1.13;;;24.90;58.60;;;;;;5013376;28;20033;-61
2022/08/01 12:32:00;;;;;;;7.63;1.40;;;24.80;58.60;;;;;;5013746;28;20030;-67
2022/08/01 12:34:30;;;;;;;2.67;0.90;;;24.70;57.60;;;;;;5014239;28;20150;-64
2022/08/01 12:37:00;;;;;;;3.40;1.43;;;24.80;58.80;;;;;;4995190;28;20033;-69
2022/08/01 12:39:32;;;;;;;2.83;1.00;;;25.00;58.20;;;;;;5014031;28;20323;-69
2022/08/01 12:41:57;;;;;;;5.93;1.33;;;25.20;57.90;;;;;;4994941;28;20034;-73
2022/08/01 12:44:23;;;;;;;5.60;1.20;;;25.40;57.30;;;;;;5013901;28;20496;-66
2022/08/01 12:46:49;;;;;;;3.10;1.25;;;25.40;56.80;;;;;;5013389;28;20025;-72
2022/08/01 12:49:15;;;;;;;2.97;1.50;;;25.50;56.80;;;;;;5028408;28;20114;-70
2022/08/01 12:51:41;;;;;;;2.35;0.80;;;25.60;56.60;;;;;;5013827;28;20029;-69